Time;durP1;ratioP1;P1;durP2;ratioP2;P2;SDS_P1;SDS_P2;PMS_P1;PMS_P2;Temp;Humidity;BMP_temperature;BMP_pressure;BME280_temperature;BME280_humidity;BME280_pressure;Samples;Min_cycle;Max_cycle;Signal;HPM_P1;HPM_P2
2023/09/02 08:18:33;;;;;;;37.70;14.95;;;;;;;21.57;59.14;99564.94;6018387;23;21048;-91
2023/09/02 08:20:59;;;;;;;46.05;16.08;;;;;;;21.78;59.97;99606.09;4975248;28;20057;-88
2023/09/02 08:23:29;;;;;;;32.10;15.30;;;;;;;21.66;59.74;99570.22;4953918;28;20039;-91
2023/09/02 08:25:55;;;;;;;42.25;15.82;;;;;;;21.69;60.24;99575.00;5001508;28;20753;-89
2023/09/02 08:28:21;;;;;;;40.63;14.05;;;;;;;21.69;60.07;99575.00;5000604;28;20041;-89
2023/09/02 08:30:48;;;;;;;39.28;14.55;;;;;;;21.77;59.77;99582.25;5018854;28;20038;-90
2023/09/02 08:33:14;;;;;;;36.88;16.35;;;;;;;21.71;60.01;99590.13;4983849;28;20545;-90
2023/09/02 08:35:40;;;;;;;43.50;14.07;;;;;;;21.53;59.75;99578.81;4955348;28;20030;-90
2023/09/02 08:38:07;;;;;;;45.43;14.80;;;;;;;21.63;60.49;99588.47;4975948;28;20296;-92
2023/09/02 08:40:44;;;;;;;46.63;16.55;;;;;;;21.72;61.86;99604.84;4972443;28;20321;-91
2023/09/02 08:43:13;;;;;;;42.67;16.58;;;;;;;21.66;62.30;99604.41;4951812;28;20042;-90
2023/09/02 08:45:43;;;;;;;39.55;17.60;;;;;;;21.34;62.50;99574.22;4966839;28;20042;-90
2023/09/02 08:48:16;;;;;;;48.65;19.73;;;;;;;21.42;63.74;99571.53;4966383;28;20042;-91
2023/09/02 08:50:44;;;;;;;56.15;18.52;;;;;;;21.39;64.54;99561.16;4971269;28;20054;-89
2023/09/02 08:53:10;;;;;;;47.63;17.45;;;;;;;21.56;64.45;99593.97;4971991;28;20046;-90
2023/09/02 08:55:38;;;;;;;42.38;18.58;;;;;;;21.43;64.42;99609.31;4999799;28;20038;-90
2023/09/02 08:58:08;;;;;;;44.00;18.77;;;;;;;21.44;66.01;99611.69;4990629;28;20423;-90
2023/09/02 09:00:35;;;;;;;48.80;19.25;;;;;;;21.51;66.32;99620.13;4983759;28;20063;-90
2023/09/02 09:03:02;;;;;;;55.17;20.80;;;;;;;21.46;65.65;99609.34;4979074;28;20049;-91
2023/09/02 09:05:30;;;;;;;39.58;19.98;;;;;;;21.58;66.10;99616.63;4959820;28;20047;-94
2023/09/02 09:07:59;;;;;;;39.72;19.42;;;;;;;21.29;65.93;99580.13;4944627;28;20047;-90
2023/09/02 09:10:29;;;;;;;45.78;19.63;;;;;;;21.38;64.85;99604.84;4974885;28;20042;-92
2023/09/02 09:12:56;;;;;;;48.80;19.25;;;;;;;21.26;64.77;99597.56;4961738;28;20066;-90
2023/09/02 09:15:23;;;;;;;41.90;17.67;;;;;;;21.48;64.04;99631.19;4966495;28;20039;-91
2023/09/02 09:17:50;;;;;;;48.97;19.65;;;;;;;21.24;63.34;99590.75;4980429;28;20081;-91
2023/09/02 09:20:16;;;;;;;;;;;;;;;21.51;65.47;99659.06;4962109;28;20051;-91
2023/09/02 09:22:43;;;;;;;54.78;20.95;;;;;;;21.34;66.46;99640.97;4927850;28;19922;-91
2023/09/02 09:25:10;;;;;;;53.72;25.00;;;;;;;21.33;67.50;99644.13;4927615;28;20030;-91
2023/09/02 09:27:37;;;;;;;60.13;23.92;;;;;;;21.24;67.96;99636.03;4965625;28;20050;-91
2023/09/02 09:30:06;;;;;;;47.67;21.77;;;;;;;21.22;66.76;99643.94;4969169;28;20043;-93
2023/09/02 09:32:33;;;;;;;43.55;21.17;;;;;;;20.92;67.48;99618.13;4964931;28;20051;-90
2023/09/02 09:34:59;;;;;;;46.42;21.73;;;;;;;21.03;69.04;99632.97;4964761;28;20038;-89
2023/09/02 09:37:25;;;;;;;53.70;23.57;;;;;;;21.12;69.41;99666.84;4930087;28;20042;-91
2023/09/02 09:39:52;;;;;;;57.20;26.33;;;;;;;20.96;68.75;99655.91;4960670;28;20302;-89
2023/09/02 09:42:33;;;;;;;51.30;26.77;;;;;;;20.85;69.51;99650.19;4943405;28;20332;-92
2023/09/02 09:45:01;;;;;;;57.05;26.95;;;;;;;20.64;71.12;99603.44;4929535;29;20615;-89
2023/09/02 09:47:30;;;;;;;49.80;24.05;;;;;;;20.87;69.81;99647.03;4972984;28;20142;-89
2023/09/02 09:50:11;;;;;;;90.22;47.25;;;;;;;20.84;69.65;99648.59;4980001;28;20069;-90
2023/09/02 09:52:56;;;;;;;49.13;24.60;;;;;;;21.08;70.72;99683.47;4959454;28;20053;-90
2023/09/02 09:55:24;;;;;;;51.38;24.00;;;;;;;21.00;71.45;99675.44;4944586;28;20062;-90
2023/09/02 09:57:54;;;;;;;48.97;26.17;;;;;;;21.10;71.79;99688.69;4941416;28;20038;-88
2023/09/02 10:00:29;;;;;;;94.70;57.90;;;;;;;21.11;70.23;99679.94;4984414;28;20134;-89
2023/09/02 10:03:02;;;;;;;72.68;34.25;;;;;;;21.02;70.01;99665.50;4986452;28;20090;-91
2023/09/02 10:05:36;;;;;;;72.90;42.33;;;;;;;21.22;71.32;99685.66;4979278;28;20074;-90
2023/09/02 10:08:06;;;;;;;52.67;27.83;;;;;;;21.10;70.75;99672.78;4957829;28;20614;-91
2023/09/02 10:10:40;;;;;;;113.65;64.80;;;;;;;20.94;71.03;99640.78;4939906;28;20037;-91
2023/09/02 10:13:12;;;;;;;57.30;25.70;;;;;;;21.18;71.96;99684.81;4980412;28;20054;-91
2023/09/02 10:15:49;;;;;;;58.45;36.03;;;;;;;20.72;71.03;99618.22;4947824;28;20089;-92
2023/09/02 10:18:23;;;;;;;54.45;27.92;;;;;;;20.97;73.28;99642.81;4930676;28;20042;-88
2023/09/02 10:20:52;;;;;;;52.47;28.38;;;;;;;21.04;73.24;99657.63;4992355;28;20066;-91
2023/09/02 10:23:28;;;;;;;62.00;34.90;;;;;;;21.08;72.40;99657.66;4973609;28;20045;-89
2023/09/02 10:26:13;;;;;;;60.83;26.63;;;;;;;21.32;72.82;99704.50;4969534;28;20090;-91
2023/09/02 10:28:40;;;;;;;46.20;25.63;;;;;;;21.34;73.64;99704.94;4950148;28;20061;-90
2023/09/02 10:31:32;;;;;;;52.60;24.80;;;;;;;21.29;73.28;99698.84;4966719;28;20039;-90
2023/09/02 10:34:06;;;;;;;55.85;25.45;;;;;;;21.39;73.66;99708.56;4927848;29;20062;-91
2023/09/02 10:36:36;;;;;;;48.13;24.95;;;;;;;21.21;73.68;99678.50;4925491;29;20043;-90
2023/09/02 10:39:06;;;;;;;66.40;27.55;;;;;;;21.24;75.54;99676.94;4945070;29;20052;-88
2023/09/02 10:41:36;;;;;;;52.33;26.60;;;;;;;21.42;74.84;99708.59;4942550;29;20043;-90
2023/09/02 10:44:06;;;;;;;61.95;33.90;;;;;;;21.35;76.06;99700.16;4911563;29;20048;-88
2023/09/02 10:47:26;;;;;;;58.78;27.20;;;;;;;21.35;74.52;99705.72;4916867;29;20056;-94
2023/09/02 10:50:49;;;;;;;59.75;28.95;;;;;;;21.21;72.88;99695.19;4867281;29;20038;-91
2023/09/02 10:53:17;;;;;;;61.75;31.27;;;;;;;21.34;74.60;99704.09;4849181;29;20042;-91
2023/09/02 10:56:02;;;;;;;54.40;30.00;;;;;;;21.33;74.16;99705.28;4826180;29;20069;-94
2023/09/02 10:58:47;;;;;;;47.67;28.65;;;;;;;21.15;74.17;99680.00;4864411;29;20049;-92
2023/09/02 11:02:01;;;;;;;47.25;26.80;;;;;;;21.33;74.49;99714.44;4860423;29;20065;-91
2023/09/02 11:04:51;;;;;;;58.08;30.30;;;;;;;21.19;74.03;99711.47;4873788;29;20053;-89
2023/09/02 11:07:32;;;;;;;65.05;39.17;;;;;;;21.05;74.32;99698.13;4879007;29;20079;-91
2023/09/02 11:09:58;;;;;;;66.97;35.08;;;;;;;20.86;75.59;99667.66;4872484;29;20049;-91
2023/09/02 11:12:25;;;;;;;69.28;42.65;;;;;;;20.87;76.52;99666.50;4890622;29;20052;-94
2023/09/02 11:15:06;;;;;;;80.00;38.20;;;;;;;21.05;76.02;99714.81;4883985;29;20040;-92
2023/09/02 11:17:33;;;;;;;57.95;31.52;;;;;;;20.93;76.72;99708.66;4881984;29;20093;-91
2023/09/02 11:20:04;;;;;;;56.10;28.23;;;;;;;21.02;78.16;99737.78;4938720;28;20042;-94
2023/09/02 11:22:51;;;;;;;59.65;31.83;;;;;;;21.13;78.34;99737.97;4990046;28;20062;-91
2023/09/02 11:25:39;;;;;;;66.53;36.20;;;;;;;21.07;77.94;99740.25;4973441;28;20046;-91
2023/09/02 11:28:25;;;;;;;55.00;33.53;;;;;;;20.94;77.52;99719.41;4991155;28;20065;-93
2023/09/02 11:31:16;;;;;;;69.50;37.80;;;;;;;20.84;77.78;99723.63;4970799;28;20049;-90
2023/09/02 11:33:47;;;;;;;70.47;41.53;;;;;;;20.73;77.70;99722.66;4992567;28;20321;-92
2023/09/02 11:36:16;;;;;;;61.97;35.63;;;;;;;20.88;78.52;99741.13;4949813;28;20646;-92
2023/09/02 11:38:43;;;;;;;70.45;38.67;;;;;;;20.72;79.52;99715.47;4967899;28;20116;-94
2023/09/02 11:41:19;;;;;;;70.72;38.75;;;;;;;20.71;79.83;99702.75;4974273;28;20050;-89
2023/09/02 11:43:45;;;;;;;61.28;34.80;;;;;;;20.84;80.62;99720.03;4996346;28;20106;-89
2023/09/02 11:46:12;;;;;;;56.10;33.58;;;;;;;21.01;80.46;99746.50;4964115;28;20022;-91
2023/09/02 11:48:40;;;;;;;64.68;37.30;;;;;;;21.03;79.86;99749.72;4995505;28;20046;-89
2023/09/02 11:51:11;;;;;;;65.80;37.55;;;;;;;20.85;80.33;99722.44;4943282;28;20007;-94
2023/09/02 11:53:37;;;;;;;67.75;36.00;;;;;;;20.93;79.71;99745.59;4988279;28;20074;-90
2023/09/02 11:56:09;;;;;;;86.93;44.85;;;;;;;20.96;79.64;99758.75;4975986;28;20098;-94
2023/09/02 11:58:35;;;;;;;82.95;48.17;;;;;;;20.71;80.36;99724.19;4969459;28;20150;-93
2023/09/02 12:01:01;;;;;;;100.40;52.75;;;;;;;20.70;80.09;99717.84;4965066;28;20062;-94
2023/09/02 12:03:28;;;;;;;110.65;52.15;;;;;;;20.78;79.60;99733.44;4939023;29;20496;-94
2023/09/02 12:05:56;;;;;;;;;;;;;;;20.99;79.42;99762.75;4941917;29;20042;-90
2023/09/02 12:08:22;;;;;;;75.10;46.45;;;;;;;20.87;79.48;99753.44;4942150;29;20057;-93
2023/09/02 12:10:53;;;;;;;79.63;44.53;;;;;;;20.95;80.36;99773.81;4927838;29;20098;-92
2023/09/02 12:13:19;;;;;;;67.82;37.63;;;;;;;20.86;79.93;99756.56;4955395;28;20047;-94
2023/09/02 12:16:11;;;;;;;65.05;36.15;;;;;;;20.97;79.17;99767.88;4977828;28;20035;-90
2023/09/02 12:18:37;;;;;;;66.60;35.92;;;;;;;20.55;79.94;99704.88;4967113;28;20105;-94
2023/09/02 12:21:03;;;;;;;73.88;39.50;;;;;;;20.72;80.20;99729.34;4931529;28;20047;-94
2023/09/02 12:23:30;;;;;;;97.30;45.03;;;;;;;20.77;81.05;99733.81;4946924;29;20047;-91
2023/09/02 12:26:06;;;;;;;79.65;40.50;;;;;;;20.97;80.39;99773.44;4959361;29;20608;-91
2023/09/02 12:28:32;;;;;;;83.07;39.22;;;;;;;20.95;79.79;99771.03;4943526;29;20082;-92
2023/09/02 12:31:03;;;;;;;89.60;36.70;;;;;;;20.85;79.36;99758.56;4929526;29;20042;-93
2023/09/02 12:33:29;;;;;;;76.50;37.35;;;;;;;20.78;79.93;99760.41;4945992;28;20048;-91
2023/09/02 12:35:55;;;;;;;66.63;36.10;;;;;;;20.75;79.39;99756.41;4945664;28;20058;-91
2023/09/02 12:38:21;;;;;;;74.97;35.88;;;;;;;20.78;79.66;99752.88;4936168;28;20114;-91
2023/09/02 12:40:57;;;;;;;75.20;39.33;;;;;;;20.79;80.29;99753.69;4962855;28;20038;-92
2023/09/02 12:43:26;;;;;;;67.10;36.95;;;;;;;20.92;80.77;99770.97;4971329;28;20034;-90
2023/09/02 12:45:56;;;;;;;59.60;33.88;;;;;;;20.90;80.54;99776.91;4973892;28;20035;-91
2023/09/02 12:48:23;;;;;;;71.30;32.05;;;;;;;20.91;80.53;99769.38;4936084;28;20039;-92
2023/09/02 12:50:51;;;;;;;74.82;40.17;;;;;;;20.90;79.28;99788.03;4958173;28;20145;-91
2023/09/02 12:53:19;;;;;;;65.57;34.70;;;;;;;20.79;79.84;99773.94;4943154;28;20073;-92
2023/09/02 12:55:45;;;;;;;64.32;35.10;;;;;;;20.85;79.59;99782.75;4957945;28;20500;-91
2023/09/02 12:58:13;;;;;;;116.72;58.50;;;;;;;20.76;79.94;99773.88;4921386;28;20068;-91
2023/09/02 13:00:39;;;;;;;96.40;57.70;;;;;;;20.77;80.52;99769.94;4958259;28;20050;-91
2023/09/02 13:03:05;;;;;;;66.18;36.03;;;;;;;20.63;80.44;99748.28;4940428;29;20043;-92
2023/09/02 13:05:31;;;;;;;70.40;37.47;;;;;;;20.76;80.91;99762.75;4942451;28;20074;-92
2023/09/02 13:07:59;;;;;;;69.20;36.38;;;;;;;20.79;81.04;99773.94;4957816;28;20077;-91
2023/09/02 13:10:25;;;;;;;59.33;34.35;;;;;;;20.67;79.57;99757.47;4951597;29;20042;-91
2023/09/02 13:12:51;;;;;;;67.38;35.88;;;;;;;20.80;80.65;99781.13;4944795;28;20126;-94
2023/09/02 13:15:25;;;;;;;68.75;33.78;;;;;;;20.74;79.91;99765.91;4949827;28;20054;-91
2023/09/02 13:17:51;;;;;;;69.82;33.38;;;;;;;20.71;79.83;99746.41;4980154;28;20079;-90
2023/09/02 13:20:18;;;;;;;72.43;32.05;;;;;;;20.63;79.68;99739.94;4944420;28;20057;-89
2023/09/02 13:22:46;;;;;;;66.80;34.58;;;;;;;20.71;79.59;99751.97;4959965;28;20094;-92
2023/09/02 13:25:16;;;;;;;67.03;34.35;;;;;;;20.58;79.83;99745.78;4944492;28;20071;-89
2023/09/02 13:27:42;;;;;;;65.88;33.55;;;;;;;20.48;80.17;99747.16;4971618;28;20416;-88
2023/09/02 13:30:11;;;;;;;71.43;34.35;;;;;;;20.41;78.81;99731.19;4936393;28;20049;-88
2023/09/02 13:32:42;;;;;;;70.78;33.75;;;;;;;20.40;78.79;99729.59;4941636;29;20142;-91
2023/09/02 13:35:18;;;;;;;72.03;31.83;;;;;;;20.55;79.63;99763.19;4940186;29;20206;-91
2023/09/02 13:37:47;;;;;;;58.20;30.48;;;;;;;20.29;78.81;99749.97;4924794;28;20054;-90
2023/09/02 13:40:18;;;;;;;61.17;30.50;;;;;;;20.38;78.04;99781.09;4945908;28;20066;-93
2023/09/02 13:42:46;;;;;;;59.28;31.98;;;;;;;20.34;78.71;99769.13;4963081;28;20035;-91
2023/09/02 13:45:13;;;;;;;59.38;32.72;;;;;;;20.36;79.92;99770.38;4962100;28;20089;-93
2023/09/02 13:47:47;;;;;;;63.65;33.38;;;;;;;20.27;80.26;99757.88;4959698;28;20050;-90
2023/09/02 13:50:18;;;;;;;66.25;33.35;;;;;;;20.14;81.01;99743.38;4938580;28;20129;-88
2023/09/02 13:52:50;;;;;;;68.32;35.65;;;;;;;20.23;81.52;99748.66;4939353;28;20094;-88
2023/09/02 13:55:22;;;;;;;79.47;38.40;;;;;;;20.39;81.55;99772.38;4956499;28;20043;-89
2023/09/02 13:57:49;;;;;;;70.38;41.90;;;;;;;20.37;80.89;99773.94;4939133;28;20078;-89
2023/09/02 14:00:37;;;;;;;84.50;43.97;;;;;;;20.32;81.21;99777.81;4955311;28;20035;-88
2023/09/02 14:03:15;;;;;;;75.05;39.75;;;;;;;20.26;81.16;99772.91;4951052;29;20039;-89
2023/09/02 14:05:41;;;;;;;76.30;40.55;;;;;;;20.15;81.43;99758.84;4936260;29;20053;-89
2023/09/02 14:08:09;;;;;;;85.47;40.03;;;;;;;20.24;82.05;99780.84;4936342;29;20416;-89
2023/09/02 14:10:39;;;;;;;67.40;36.70;;;;;;;20.08;81.50;99759.50;4955189;28;20126;-88
2023/09/02 14:13:12;;;;;;;69.00;38.70;;;;;;;20.20;82.29;99778.00;4935317;29;20047;-88
2023/09/02 14:15:38;;;;;;;65.63;36.15;;;;;;;20.01;82.49;99747.47;4903919;29;20041;-87
2023/09/02 14:18:04;;;;;;;63.55;35.72;;;;;;;20.18;82.16;99772.78;4953284;29;20047;-89
2023/09/02 14:20:32;;;;;;;60.05;36.42;;;;;;;19.94;82.73;99737.81;4981053;28;20058;-90
2023/09/02 14:22:59;;;;;;;66.20;38.45;;;;;;;20.12;82.81;99776.22;4957880;28;20042;-89
2023/09/02 14:25:26;;;;;;;63.58;37.00;;;;;;;19.96;81.65;99759.63;4991572;28;20064;-89
2023/09/02 14:27:53;;;;;;;52.00;34.63;;;;;;;19.96;82.10;99754.09;4973247;28;20463;-88
2023/09/02 14:30:19;;;;;;;52.08;35.50;;;;;;;20.05;82.19;99773.31;4958806;28;20034;-91
2023/09/02 14:32:46;;;;;;;63.03;37.95;;;;;;;19.96;82.60;99770.75;4975890;28;20054;-91
2023/09/02 14:35:12;;;;;;;59.60;36.72;;;;;;;19.93;83.08;99763.16;4943030;28;20459;-91
2023/09/02 14:37:39;;;;;;;114.85;65.05;;;;;;;19.89;82.54;99771.41;4961533;28;20511;-91
2023/09/02 14:40:06;;;;;;;126.03;72.85;;;;;;;19.88;82.61;99769.00;4959946;28;20040;-90
2023/09/02 14:42:33;;;;;;;114.65;68.47;;;;;;;19.93;83.09;99782.56;4942190;28;20082;-91
2023/09/02 14:45:02;;;;;;;100.47;59.75;;;;;;;19.97;83.28;99780.69;4942069;28;20042;-91
2023/09/02 14:47:32;;;;;;;87.15;50.60;;;;;;;19.83;83.42;99767.31;4957776;28;20043;-89
2023/09/02 14:49:59;;;;;;;83.63;47.78;;;;;;;20.04;83.59;99805.00;4959514;28;20043;-89
2023/09/02 14:52:25;;;;;;;;;;;;;;;20.06;83.75;99808.22;4936542;28;20057;-90
2023/09/02 14:54:51;;;;;;;73.40;43.55;;;;;;;19.93;83.72;99794.50;4972345;28;19926;-89
2023/09/02 14:57:23;;;;;;;75.57;44.47;;;;;;;19.83;84.13;99786.72;4939835;28;20133;-89
2023/09/02 14:59:51;;;;;;;73.20;42.67;;;;;;;19.98;83.98;99812.81;4956660;28;20528;-91
2023/09/02 15:02:36;;;;;;;71.90;40.50;;;;;;;19.97;84.04;99815.94;4962580;28;20038;-90
2023/09/02 15:05:25;;;;;;;67.90;38.95;;;;;;;19.90;84.11;99805.50;4942944;28;20046;-90
2023/09/02 15:07:57;;;;;;;75.00;39.33;;;;;;;19.70;84.09;99779.69;4998137;28;20504;-90
2023/09/02 15:10:32;;;;;;;66.70;36.60;;;;;;;19.65;83.21;99778.03;4978934;28;20045;-92
2023/09/02 15:13:02;;;;;;;68.75;38.55;;;;;;;19.62;83.66;99772.38;4995734;28;20137;-92
2023/09/02 15:15:41;;;;;;;64.90;38.83;;;;;;;19.94;84.09;99817.50;4986565;28;20042;-92
2023/09/02 15:18:35;;;;;;;76.32;37.83;;;;;;;19.92;84.47;99815.06;4969837;28;20399;-92
2023/09/02 15:21:03;;;;;;;73.55;40.17;;;;;;;19.70;84.69;99769.44;4980517;28;20121;-91
2023/09/02 15:23:31;;;;;;;77.38;39.88;;;;;;;19.77;84.65;99785.44;4964743;28;20043;-92
2023/09/02 15:26:01;;;;;;;78.78;39.83;;;;;;;19.92;84.43;99809.53;4933131;28;20389;-90
2023/09/02 15:28:27;;;;;;;74.05;40.75;;;;;;;19.84;84.35;99798.66;4981063;28;20137;-90
2023/09/02 15:30:55;;;;;;;69.95;39.78;;;;;;;19.86;84.10;99810.16;4927681;29;20035;-94
2023/09/02 15:33:23;;;;;;;82.38;41.90;;;;;;;19.82;84.44;99804.53;4951764;28;20137;-90
2023/09/02 15:35:52;;;;;;;74.03;41.42;;;;;;;19.83;84.86;99805.34;4960787;28;20039;-90
2023/09/02 15:38:19;;;;;;;75.93;42.28;;;;;;;19.66;85.04;99790.72;4944227;28;20074;-89
2023/09/02 15:40:45;;;;;;;69.95;40.97;;;;;;;19.58;85.21;99777.03;4947194;28;20042;-87
2023/09/02 15:43:11;;;;;;;78.35;41.17;;;;;;;19.56;85.28;99776.59;4980106;28;20042;-88
2023/09/02 15:45:39;;;;;;;80.72;44.00;;;;;;;19.66;85.11;99790.72;4960042;28;20074;-89
2023/09/02 15:48:06;;;;;;;;;;;;;;;19.80;85.13;99834.63;4953387;28;20035;-90
2023/09/02 15:50:53;;;;;;;73.85;44.35;;;;;;;19.70;85.88;99819.38;4986168;28;20001;-90
2023/09/02 15:53:23;;;;;;;87.07;45.38;;;;;;;19.62;86.19;99809.22;4912388;29;20055;-89
2023/09/02 15:55:51;;;;;;;84.18;45.65;;;;;;;19.71;86.42;99814.63;4906714;29;20170;-88
2023/09/02 15:58:19;;;;;;;87.50;47.42;;;;;;;19.74;86.54;99833.31;4902146;29;20096;-90
2023/09/02 16:00:45;;;;;;;87.57;48.47;;;;;;;19.69;86.75;99822.47;4904307;29;20103;-90
2023/09/02 16:03:16;;;;;;;93.45;50.42;;;;;;;19.78;87.24;99841.72;4925598;29;20065;-89
2023/09/02 16:05:44;;;;;;;101.75;52.38;;;;;;;19.56;87.53;99820.97;4927781;29;20548;-89
2023/09/02 16:08:10;;;;;;;104.43;52.67;;;;;;;19.54;87.58;99815.78;4924457;29;20064;-90
2023/09/02 16:10:37;;;;;;;119.10;53.33;;;;;;;19.45;87.66;99807.66;4923786;29;20055;-90
2023/09/02 16:13:05;;;;;;;112.30;55.58;;;;;;;19.60;87.83;99832.94;4897326;29;20036;-89
2023/09/02 16:15:31;;;;;;;119.40;58.60;;;;;;;19.37;88.03;99800.34;4915012;29;20036;-89
2023/09/02 16:17:57;;;;;;;101.45;56.22;;;;;;;19.58;88.00;99832.50;4918559;29;20106;-89
2023/09/02 16:20:24;;;;;;;110.35;57.92;;;;;;;19.45;88.06;99812.41;4927376;29;20070;-88
2023/09/02 16:22:53;;;;;;;106.35;56.13;;;;;;;19.28;88.25;99790.63;4921940;29;20035;-89
2023/09/02 16:25:20;;;;;;;112.43;58.60;;;;;;;19.52;88.31;99828.41;4889520;29;20073;-89
2023/09/02 16:27:46;;;;;;;109.32;58.35;;;;;;;19.58;88.58;99843.59;4913515;29;20039;-90
2023/09/02 16:30:13;;;;;;;98.68;56.88;;;;;;;19.59;88.63;99848.78;4935509;28;20050;-88
2023/09/02 16:32:41;;;;;;;114.88;60.50;;;;;;;19.46;88.23;99827.88;4918706;29;20051;-93
2023/09/02 16:35:07;;;;;;;108.57;62.22;;;;;;;19.36;88.42;99820.91;4918968;29;20043;-90
2023/09/02 16:37:40;;;;;;;97.82;58.72;;;;;;;19.44;88.56;99831.00;4943103;29;20555;-88
2023/09/02 16:40:09;;;;;;;101.18;58.15;;;;;;;19.53;88.32;99841.09;4947102;28;20054;-88
2023/09/02 16:42:39;;;;;;;104.00;56.25;;;;;;;19.20;88.45;99801.53;4931666;29;20054;-87
2023/09/02 16:45:07;;;;;;;95.57;52.53;;;;;;;19.36;88.28;99832.00;4948489;28;20035;-87
2023/09/02 16:47:41;;;;;;;98.47;53.85;;;;;;;19.32;88.73;99836.66;4938166;28;20797;-87
2023/09/02 16:50:10;;;;;;;94.63;52.92;;;;;;;19.32;88.53;99842.19;4948777;28;20043;-88
2023/09/02 16:52:42;;;;;;;92.30;50.78;;;;;;;19.27;88.36;99830.56;4935414;28;20054;-89
2023/09/02 16:55:14;;;;;;;100.38;52.47;;;;;;;19.44;88.51;99866.25;4946956;28;20054;-88
2023/09/02 16:57:42;;;;;;;88.97;50.90;;;;;;;19.20;88.87;99826.47;4927192;29;20161;-90
2023/09/02 17:00:11;;;;;;;90.13;52.33;;;;;;;19.32;89.08;99853.28;4917988;29;20130;-90
2023/09/02 17:02:41;;;;;;;89.03;51.47;;;;;;;19.32;89.02;99853.28;4944425;28;20149;-89
2023/09/02 17:05:15;;;;;;;96.20;52.15;;;;;;;19.38;88.94;99860.16;4926747;29;20088;-88
2023/09/02 17:07:42;;;;;;;91.05;51.05;;;;;;;19.22;89.31;99835.22;4936174;28;20042;-88
2023/09/02 17:10:17;;;;;;;96.78;52.53;;;;;;;19.30;89.35;99844.50;4876004;29;20454;-89
2023/09/02 17:12:46;;;;;;;119.47;59.42;;;;;;;19.38;89.03;99853.81;4876436;29;20045;-88
2023/09/02 17:15:14;;;;;;;;;;;;;;;19.42;89.08;99863.03;4872135;29;20037;-91
2023/09/02 17:17:44;;;;;;;107.63;57.03;;;;;;;19.41;88.98;99865.00;4904658;29;19923;-88
2023/09/02 17:20:28;;;;;;;101.68;55.65;;;;;;;19.29;88.80;99854.00;4898238;29;20560;-90
2023/09/02 17:22:56;;;;;;;93.57;51.03;;;;;;;19.24;88.62;99851.50;4925465;29;20039;-90
2023/09/02 17:25:22;;;;;;;91.35;49.10;;;;;;;19.20;88.77;99858.91;4896367;29;20038;-90
2023/09/02 17:27:54;;;;;;;;;;;;;;;19.23;89.17;99872.84;4896010;29;20048;-87
2023/09/02 17:30:22;;;;;;;82.93;44.50;;;;;;;18.99;89.52;99845.31;4939717;29;19929;-88
2023/09/02 17:32:49;;;;;;;92.00;44.47;;;;;;;19.07;89.87;99854.63;4914619;29;20046;-88
2023/09/02 17:35:16;;;;;;;82.38;41.92;;;;;;;19.11;89.70;99870.19;4928738;29;20042;-90
2023/09/02 17:37:46;;;;;;;75.00;41.22;;;;;;;19.08;89.68;99864.56;4927235;29;20035;-90
2023/09/02 17:40:12;;;;;;;70.43;38.78;;;;;;;19.02;89.30;99859.28;4896535;29;20054;-92
2023/09/02 17:42:41;;;;;;;75.78;39.53;;;;;;;19.04;89.61;99866.41;4932030;29;20044;-87
2023/09/02 17:45:10;;;;;;;70.78;40.58;;;;;;;18.91;89.63;99840.78;4907408;29;20284;-94
2023/09/02 17:47:39;;;;;;;72.10;39.80;;;;;;;18.80;89.66;99823.84;4923944;29;20115;-89
2023/09/02 17:50:11;;;;;;;71.38;39.58;;;;;;;18.96;89.64;99852.38;4921875;29;20074;-94
2023/09/02 17:52:39;;;;;;;67.63;40.63;;;;;;;19.00;90.15;99869.09;4918502;29;20043;-89
2023/09/02 17:55:07;;;;;;;65.20;39.25;;;;;;;18.78;89.88;99843.59;4992283;28;20069;-91
2023/09/02 17:57:34;;;;;;;76.95;40.42;;;;;;;18.89;90.31;99866.03;4954253;28;20050;-89
2023/09/02 18:00:04;;;;;;;68.22;37.65;;;;;;;18.91;90.86;99860.16;4966493;28;20792;-88
2023/09/02 18:02:33;;;;;;;58.88;35.10;;;;;;;19.01;90.91;99871.53;4988263;28;20054;-91
2023/09/02 18:05:03;;;;;;;71.37;40.13;;;;;;;19.10;89.62;99885.19;4986684;28;20077;-90
2023/09/02 18:07:31;;;;;;;63.72;37.38;;;;;;;18.93;89.50;99852.28;4937261;28;20035;-89
2023/09/02 18:09:58;;;;;;;62.53;34.72;;;;;;;19.12;88.93;99862.69;4968104;28;20054;-89
2023/09/02 18:12:24;;;;;;;57.42;35.40;;;;;;;19.16;88.04;99878.22;4985500;28;20092;-90
2023/09/02 18:14:51;;;;;;;58.95;35.53;;;;;;;19.05;88.01;99862.50;4984852;28;20042;-89
2023/09/02 18:17:19;;;;;;;57.85;36.60;;;;;;;19.00;88.26;99866.31;4965406;28;20042;-88
2023/09/02 18:19:45;;;;;;;60.20;36.50;;;;;;;19.13;88.43;99887.25;4942723;28;20630;-86
2023/09/02 18:22:13;;;;;;;60.45;36.35;;;;;;;19.16;88.28;99885.75;4921322;28;20079;-88
2023/09/02 18:24:41;;;;;;;56.15;33.25;;;;;;;18.95;89.00;99866.59;4895409;29;21642;-86
2023/09/02 18:27:10;;;;;;;53.22;34.05;;;;;;;18.88;87.59;99860.88;4942111;28;20047;-85
2023/09/02 18:29:36;;;;;;;58.20;33.30;;;;;;;19.00;87.54;99900.38;4911032;29;20124;-87
2023/09/02 18:32:02;;;;;;;50.90;30.55;;;;;;;18.94;86.87;99892.69;4925197;29;20047;-87
2023/09/02 18:34:30;;;;;;;49.83;29.83;;;;;;;18.85;87.48;99883.75;4913654;29;20242;-89
2023/09/02 18:36:56;;;;;;;45.53;27.52;;;;;;;18.88;86.66;99897.69;4908143;28;20086;-88
2023/09/02 18:39:26;;;;;;;43.85;26.98;;;;;;;18.80;86.78;99875.69;4908183;28;20035;-89
2023/09/02 18:41:52;;;;;;;47.50;27.55;;;;;;;18.93;86.43;99886.34;4960769;28;20126;-92
2023/09/02 18:44:20;;;;;;;41.10;23.67;;;;;;;18.69;85.56;99855.97;4944820;28;20086;-86
2023/09/02 18:46:48;;;;;;;36.80;24.30;;;;;;;18.69;86.74;99865.09;4929953;29;20042;-88
2023/09/02 18:49:17;;;;;;;38.45;24.80;;;;;;;18.70;86.60;99861.16;4947482;28;20031;-86
2023/09/02 18:51:43;;;;;;;41.35;26.25;;;;;;;18.57;87.06;99836.66;4948458;28;20055;-87
2023/09/02 18:54:15;;;;;;;44.15;26.98;;;;;;;18.83;86.41;99873.00;4934199;28;20050;-87
2023/09/02 18:56:43;;;;;;;39.28;26.15;;;;;;;18.64;86.65;99853.44;4942622;28;20606;-88
2023/09/02 18:59:15;;;;;;;51.00;28.08;;;;;;;18.81;87.62;99872.56;4974101;28;20116;-87
2023/09/02 19:01:42;;;;;;;47.15;24.05;;;;;;;19.44;85.83;99889.25;4959247;28;20518;-90
2023/09/02 19:04:19;;;;;;;39.65;24.48;;;;;;;19.33;83.91;99862.41;4946258;28;20120;-90
2023/09/02 19:06:45;;;;;;;39.40;23.83;;;;;;;19.44;83.39;99864.28;4959633;28;20042;-88
2023/09/02 19:09:15;;;;;;;36.83;22.80;;;;;;;19.53;83.15;99882.69;4975973;28;20053;-88
2023/09/02 19:11:42;;;;;;;34.58;21.35;;;;;;;19.78;81.91;99886.09;4945026;28;20042;-89
2023/09/02 19:14:11;;;;;;;38.15;22.58;;;;;;;19.65;81.60;99877.06;4972102;28;20424;-87
2023/09/02 19:16:41;;;;;;;35.20;23.60;;;;;;;19.36;82.50;99859.72;4974484;28;20038;-87
2023/09/02 19:19:07;;;;;;;34.67;22.88;;;;;;;19.43;82.93;99892.34;4988076;28;20046;-88
2023/09/02 19:21:33;;;;;;;35.85;23.02;;;;;;;19.22;83.50;99870.47;4922537;28;20046;-86
2023/09/02 19:24:00;;;;;;;30.42;20.02;;;;;;;19.21;83.69;99877.97;4956639;28;20027;-90
2023/09/02 19:26:29;;;;;;;36.20;22.58;;;;;;;19.33;84.41;99901.22;4935473;28;20043;-87
2023/09/02 19:28:55;;;;;;;31.98;20.88;;;;;;;19.01;84.79;99868.75;4953505;28;20043;-88
2023/09/02 19:31:21;;;;;;;36.83;22.20;;;;;;;19.12;84.61;99880.09;4950159;28;20122;-86
2023/09/02 19:33:49;;;;;;;42.27;22.43;;;;;;;19.06;84.65;99878.75;4949702;28;20039;-90
2023/09/02 19:36:15;;;;;;;38.30;24.45;;;;;;;18.88;85.37;99850.59;4955207;28;20043;-87
2023/09/02 19:38:41;;;;;;;41.80;23.03;;;;;;;19.05;85.04;99874.38;4931871;28;20058;-89
2023/09/02 19:41:09;;;;;;;38.50;23.05;;;;;;;18.96;84.82;99876.50;4933908;28;20300;-88
2023/09/02 19:43:37;;;;;;;37.45;22.17;;;;;;;19.00;84.84;99883.75;4932555;28;20427;-86
2023/09/02 19:46:08;;;;;;;38.33;25.83;;;;;;;18.85;85.72;99861.59;4940877;28;20038;-91
2023/09/02 19:48:35;;;;;;;44.28;27.95;;;;;;;19.07;85.77;99896.19;4930396;28;20039;-92
2023/09/02 19:51:03;;;;;;;48.17;27.92;;;;;;;19.07;85.70;99890.63;4938920;28;20624;-90